Time;durP1;ratioP1;P1;durP2;ratioP2;P2;SDS_P1;SDS_P2;PMS_P1;PMS_P2;Temp;Humidity;BMP_temperature;BMP_pressure;BME280_temperature;BME280_humidity;BME280_pressure;Samples;Min_cycle;Max_cycle;Signal;HPM_P1;HPM_P2
2023/08/01 00:02:17;;;;;;;7.40;4.20;;;19.10;99.90;;;;;;5062168;28;20255;-65
2023/08/01 00:04:42;;;;;;;7.10;4.30;;;19.10;99.90;;;;;;5067725;28;20191;-65
2023/08/01 00:07:08;;;;;;;5.77;4.30;;;19.10;99.90;;;;;;5059970;28;20207;-66
2023/08/01 00:09:33;;;;;;;6.00;3.83;;;19.00;99.90;;;;;;5063393;28;20233;-66
2023/08/01 00:11:58;;;;;;;7.10;4.07;;;19.00;99.90;;;;;;5059552;28;20668;-66
2023/08/01 00:14:24;;;;;;;6.93;4.53;;;19.00;99.90;;;;;;5060737;28;20260;-66
2023/08/01 00:16:52;;;;;;;4.67;4.03;;;19.00;99.90;;;;;;5055528;28;20592;-65
2023/08/01 00:19:18;;;;;;;9.20;4.10;;;18.80;99.90;;;;;;5062260;28;20708;-66
2023/08/01 00:21:44;;;;;;;4.00;3.70;;;18.60;99.90;;;;;;5058544;28;20194;-66
2023/08/01 00:24:09;;;;;;;7.43;4.40;;;18.50;99.90;;;;;;5051072;28;20603;-69
2023/08/01 00:26:35;;;;;;;6.50;4.47;;;18.50;99.90;;;;;;5073215;28;20206;-66
2023/08/01 00:29:01;;;;;;;7.57;4.10;;;18.50;99.90;;;;;;5061642;28;20210;-67
2023/08/01 00:31:26;;;;;;;6.20;3.80;;;18.40;99.90;;;;;;5059958;28;20206;-65
2023/08/01 00:33:52;;;;;;;5.77;3.83;;;18.20;99.90;;;;;;5060179;28;20217;-67
2023/08/01 00:36:17;;;;;;;5.33;4.03;;;18.20;99.90;;;;;;5077539;28;20201;-68
2023/08/01 00:38:43;;;;;;;8.17;3.93;;;18.20;99.90;;;;;;5069670;28;20197;-68
2023/08/01 00:41:09;;;;;;;7.30;3.70;;;18.20;99.90;;;;;;5073404;28;20271;-69
2023/08/01 00:43:35;;;;;;;5.63;4.13;;;18.10;99.90;;;;;;5060821;28;20682;-68
2023/08/01 00:46:04;;;;;;;7.63;3.53;;;18.10;99.90;;;;;;5063833;28;20194;-68
2023/08/01 00:48:31;;;;;;;4.03;3.40;;;18.10;99.90;;;;;;5062223;28;20197;-69
2023/08/01 00:51:03;;;;;;;6.73;3.40;;;18.00;99.90;;;;;;5063884;28;20416;-69
2023/08/01 00:53:29;;;;;;;5.53;3.37;;;18.00;99.90;;;;;;5062264;28;20232;-69
2023/08/01 00:55:55;;;;;;;3.63;2.73;;;17.90;99.90;;;;;;5079800;28;20194;-66
2023/08/01 00:58:21;;;;;;;5.57;4.33;;;17.90;99.90;;;;;;5072764;28;20185;-66
2023/08/01 01:00:47;;;;;;;4.63;3.00;;;17.90;99.90;;;;;;5064904;28;20288;-65
2023/08/01 01:03:13;;;;;;;5.43;3.63;;;17.90;99.90;;;;;;5063895;28;20247;-65
2023/08/01 01:05:49;;;;;;;3.37;2.83;;;17.80;99.90;;;;;;5079778;28;20198;-66
2023/08/01 01:08:15;;;;;;;4.77;3.20;;;17.90;99.90;;;;;;5064119;28;20193;-66
2023/08/01 01:10:40;;;;;;;4.07;3.63;;;17.80;99.90;;;;;;5071034;28;20229;-66
2023/08/01 01:13:06;;;;;;;4.60;3.03;;;17.80;99.90;;;;;;5063846;28;20221;-64
2023/08/01 01:15:31;;;;;;;4.40;3.00;;;17.70;99.90;;;;;;5066474;28;20524;-64
2023/08/01 01:17:57;;;;;;;3.90;3.00;;;17.70;99.90;;;;;;5084002;28;20220;-71
2023/08/01 01:20:25;;;;;;;3.20;2.57;;;17.70;99.90;;;;;;5078072;28;20233;-66
2023/08/01 01:22:55;;;;;;;3.67;3.13;;;17.70;99.90;;;;;;5071857;28;20224;-61
2023/08/01 01:25:22;;;;;;;4.67;3.60;;;17.70;99.90;;;;;;5067234;28;20205;-64
2023/08/01 01:27:49;;;;;;;4.50;3.70;;;17.70;99.90;;;;;;5063582;28;20687;-61
2023/08/01 01:30:16;;;;;;;5.40;3.33;;;17.70;99.90;;;;;;5080442;28;20745;-66
2023/08/01 01:32:42;;;;;;;2.73;2.53;;;17.60;99.90;;;;;;5063960;28;20209;-64
2023/08/01 01:35:07;;;;;;;4.83;3.50;;;17.60;99.90;;;;;;5084474;28;20264;-67
2023/08/01 01:37:33;;;;;;;4.17;3.27;;;17.70;99.90;;;;;;5062265;28;20208;-67
2023/08/01 01:39:58;;;;;;;6.60;4.37;;;17.70;99.90;;;;;;5078371;28;20202;-67
2023/08/01 01:42:24;;;;;;;4.40;3.73;;;17.70;99.90;;;;;;5066672;28;20275;-65
2023/08/01 01:44:49;;;;;;;3.53;3.23;;;17.70;99.90;;;;;;5061389;28;20529;-63
2023/08/01 01:47:15;;;;;;;5.47;3.13;;;17.70;99.90;;;;;;5065525;28;20289;-67
2023/08/01 01:49:40;;;;;;;6.20;3.73;;;17.70;99.90;;;;;;5083082;28;20829;-68
2023/08/01 01:52:06;;;;;;;4.83;4.00;;;17.70;99.90;;;;;;5068929;28;20205;-63
2023/08/01 01:54:32;;;;;;;4.20;3.70;;;17.70;99.90;;;;;;5077663;28;20224;-62
2023/08/01 01:56:57;;;;;;;4.37;3.50;;;17.70;99.90;;;;;;5061116;28;20201;-62
2023/08/01 01:59:23;;;;;;;4.67;4.17;;;17.60;99.90;;;;;;5064105;28;20204;-68
2023/08/01 02:01:48;;;;;;;4.47;3.63;;;17.60;99.90;;;;;;5069151;28;20285;-69
2023/08/01 02:04:13;;;;;;;4.80;3.40;;;17.60;99.90;;;;;;5083952;28;20630;-69
2023/08/01 02:06:39;;;;;;;5.37;3.40;;;17.60;99.90;;;;;;5073297;28;20209;-65
2023/08/01 02:09:04;;;;;;;5.33;4.50;;;17.60;99.90;;;;;;5065383;28;20230;-64
2023/08/01 02:11:30;;;;;;;7.17;3.53;;;17.50;99.90;;;;;;5068432;28;20221;-65
2023/08/01 02:13:56;;;;;;;3.93;3.57;;;17.50;99.90;;;;;;5065310;28;20194;-65
2023/08/01 02:16:21;;;;;;;5.27;3.67;;;17.50;99.90;;;;;;5067908;28;20202;-64
2023/08/01 02:18:47;;;;;;;4.73;3.53;;;17.60;99.90;;;;;;5077606;28;20245;-65
2023/08/01 02:21:12;;;;;;;4.23;3.70;;;17.60;99.90;;;;;;5073644;28;20293;-65
2023/08/01 02:23:38;;;;;;;4.53;4.13;;;17.60;99.90;;;;;;5064108;28;20651;-65
2023/08/01 02:26:03;;;;;;;4.33;3.77;;;17.60;99.90;;;;;;5062480;28;20215;-65
2023/08/01 02:28:29;;;;;;;4.50;3.80;;;17.60;99.90;;;;;;5064327;28;20186;-65
2023/08/01 02:30:54;;;;;;;5.17;3.87;;;17.60;99.90;;;;;;5072184;28;20972;-65
2023/08/01 02:33:20;;;;;;;7.67;4.73;;;17.60;99.90;;;;;;5061604;28;20202;-64
2023/08/01 02:35:48;;;;;;;7.73;4.53;;;17.60;99.90;;;;;;5084023;28;20212;-64
2023/08/01 02:38:14;;;;;;;4.87;3.83;;;17.60;99.90;;;;;;5068248;28;20213;-64
2023/08/01 02:40:39;;;;;;;4.70;4.30;;;17.60;99.90;;;;;;5071280;28;20198;-64
2023/08/01 02:43:05;;;;;;;5.87;4.07;;;17.70;99.90;;;;;;5075309;28;20210;-65
2023/08/01 02:45:30;;;;;;;4.90;3.77;;;17.60;99.90;;;;;;5063968;28;20841;-64
2023/08/01 02:47:56;;;;;;;5.07;4.47;;;17.60;99.90;;;;;;5062790;28;20202;-65
2023/08/01 02:50:21;;;;;;;8.30;4.13;;;17.60;99.90;;;;;;5069595;28;20713;-64
2023/08/01 02:52:47;;;;;;;3.70;3.43;;;17.60;99.90;;;;;;5072166;28;20206;-64
2023/08/01 02:55:12;;;;;;;4.37;3.97;;;17.60;99.90;;;;;;5064109;28;20198;-64
2023/08/01 02:57:38;;;;;;;5.83;3.93;;;17.60;99.90;;;;;;5074124;28;20657;-64
2023/08/01 03:00:05;;;;;;;4.80;3.80;;;17.60;99.90;;;;;;5062155;28;20186;-64
2023/08/01 03:02:31;;;;;;;6.90;4.73;;;17.60;99.90;;;;;;5074812;28;20198;-64
2023/08/01 03:04:57;;;;;;;6.07;4.20;;;17.60;99.90;;;;;;5063056;28;20201;-65
2023/08/01 03:07:22;;;;;;;5.40;4.80;;;17.60;99.90;;;;;;5076513;28;20189;-64
2023/08/01 03:09:48;;;;;;;5.70;4.20;;;17.60;99.90;;;;;;5076890;28;20251;-65
2023/08/01 03:12:13;;;;;;;7.80;5.10;;;17.60;99.90;;;;;;5064789;28;20205;-65
2023/08/01 03:14:41;;;;;;;4.60;4.10;;;17.60;99.90;;;;;;5063222;28;20189;-65
2023/08/01 03:17:08;;;;;;;5.47;4.20;;;17.60;99.90;;;;;;5069503;28;20222;-65
2023/08/01 03:19:33;;;;;;;7.43;3.70;;;17.60;99.90;;;;;;5062655;28;20170;-65
2023/08/01 03:22:00;;;;;;;9.93;5.20;;;17.70;99.90;;;;;;5060937;28;20185;-65
2023/08/01 03:24:25;;;;;;;4.63;3.87;;;17.70;99.90;;;;;;5063091;28;20239;-65
2023/08/01 03:26:50;;;;;;;5.10;3.97;;;17.70;99.90;;;;;;5066249;28;20719;-64
2023/08/01 03:29:16;;;;;;;7.10;3.57;;;17.70;99.90;;;;;;5072856;28;20225;-65
2023/08/01 03:31:42;;;;;;;4.70;4.17;;;17.60;99.90;;;;;;5070081;28;20556;-65
2023/08/01 03:34:08;;;;;;;4.93;4.43;;;17.60;99.90;;;;;;5072933;28;20325;-65
2023/08/01 03:36:34;;;;;;;6.13;3.70;;;17.60;99.90;;;;;;5064289;28;20850;-65
2023/08/01 03:38:59;;;;;;;6.33;3.60;;;17.60;99.90;;;;;;5061549;28;20225;-64
2023/08/01 03:41:25;;;;;;;6.03;4.43;;;17.60;99.90;;;;;;5080659;28;20184;-64
2023/08/01 03:43:50;;;;;;;4.83;3.87;;;17.60;99.90;;;;;;5058863;28;20244;-64
2023/08/01 03:46:16;;;;;;;7.80;4.80;;;17.60;99.90;;;;;;5066629;28;20724;-63
2023/08/01 03:48:43;;;;;;;4.23;3.53;;;17.60;99.90;;;;;;5064289;28;20209;-63
2023/08/01 03:51:08;;;;;;;5.63;4.30;;;17.60;99.90;;;;;;5082001;28;20209;-63
2023/08/01 03:53:34;;;;;;;4.30;3.87;;;17.60;99.90;;;;;;5060990;28;21032;-63
2023/08/01 03:55:59;;;;;;;4.90;3.40;;;17.60;99.90;;;;;;5063044;28;20195;-63
2023/08/01 03:58:24;;;;;;;5.03;3.87;;;17.60;99.90;;;;;;5066228;28;20212;-63
2023/08/01 04:00:50;;;;;;;4.67;3.47;;;17.70;99.90;;;;;;5068475;28;20265;-63
2023/08/01 04:03:16;;;;;;;4.33;3.93;;;17.70;99.90;;;;;;5062717;28;20229;-64
2023/08/01 04:05:41;;;;;;;4.53;3.60;;;17.70;99.90;;;;;;5073292;28;20186;-64
2023/08/01 04:08:06;;;;;;;4.57;4.17;;;17.70;99.90;;;;;;5068189;28;20202;-63
2023/08/01 04:10:32;;;;;;;5.40;3.37;;;17.70;99.90;;;;;;5075035;28;20230;-65
2023/08/01 04:12:57;;;;;;;4.93;3.60;;;17.70;99.90;;;;;;5069343;28;20602;-69
2023/08/01 04:15:23;;;;;;;4.17;3.30;;;17.70;99.90;;;;;;5081012;28;20246;-69
2023/08/01 04:17:48;;;;;;;5.27;3.63;;;17.70;99.90;;;;;;5071085;28;20451;-70
2023/08/01 04:20:14;;;;;;;5.27;3.70;;;17.70;99.90;;;;;;5064661;28;20199;-70
2023/08/01 04:22:39;;;;;;;4.93;3.47;;;17.80;99.90;;;;;;5068121;28;20197;-69
2023/08/01 04:25:05;;;;;;;4.07;3.60;;;17.80;99.90;;;;;;5062455;28;20584;-69
2023/08/01 04:27:30;;;;;;;6.50;3.40;;;17.80;99.90;;;;;;5073623;28;20232;-69
2023/08/01 04:29:56;;;;;;;4.00;3.70;;;17.80;99.90;;;;;;5061911;28;20279;-65
2023/08/01 04:32:21;;;;;;;4.37;3.27;;;17.80;99.90;;;;;;5078097;28;20882;-67
2023/08/01 04:34:47;;;;;;;4.80;3.10;;;17.90;99.90;;;;;;5066073;28;20178;-69
2023/08/01 04:37:13;;;;;;;5.73;3.77;;;17.90;99.90;;;;;;5076764;28;20226;-63
2023/08/01 04:39:38;;;;;;;3.33;3.03;;;17.90;99.90;;;;;;5065970;28;20679;-63
2023/08/01 04:42:04;;;;;;;4.27;2.97;;;17.90;99.90;;;;;;5063582;28;20731;-62
2023/08/01 04:44:30;;;;;;;3.50;3.20;;;17.90;99.90;;;;;;5061058;28;20177;-64
2023/08/01 04:46:56;;;;;;;3.40;3.10;;;17.90;99.90;;;;;;5073075;28;20563;-62
2023/08/01 04:49:21;;;;;;;4.57;2.77;;;17.90;99.90;;;;;;5065958;28;20261;-63
2023/08/01 04:51:48;;;;;;;5.67;3.13;;;17.90;99.90;;;;;;5083349;28;20199;-66
2023/08/01 04:54:14;;;;;;;4.07;2.93;;;17.90;99.90;;;;;;5077562;28;20178;-63
2023/08/01 04:56:39;;;;;;;4.40;3.13;;;17.80;99.90;;;;;;5077856;28;20190;-63
2023/08/01 04:59:05;;;;;;;4.93;3.10;;;17.90;99.90;;;;;;5064272;28;20603;-63
2023/08/01 05:01:31;;;;;;;4.00;3.03;;;17.90;99.90;;;;;;5070281;28;20208;-63
2023/08/01 05:03:57;;;;;;;3.97;2.73;;;18.00;99.90;;;;;;5064519;28;20216;-74
2023/08/01 05:06:22;;;;;;;4.20;3.33;;;18.00;99.90;;;;;;5075384;28;20185;-68
2023/08/01 05:08:48;;;;;;;3.17;2.73;;;17.90;99.90;;;;;;5065457;28;20190;-68
2023/08/01 05:11:13;;;;;;;5.70;2.90;;;17.90;99.90;;;;;;5072570;28;20814;-68
2023/08/01 05:13:39;;;;;;;5.13;3.13;;;17.90;99.90;;;;;;5067212;28;20197;-69
2023/08/01 05:16:04;;;;;;;4.00;3.10;;;18.00;99.90;;;;;;5078118;28;20251;-66
2023/08/01 05:18:30;;;;;;;3.37;3.00;;;17.90;99.90;;;;;;5068412;28;20210;-69
2023/08/01 05:20:55;;;;;;;3.80;3.07;;;18.00;99.90;;;;;;5066693;28;20179;-62
2023/08/01 05:23:21;;;;;;;2.83;2.63;;;17.90;99.90;;;;;;5063714;28;20205;-69
2023/08/01 05:25:46;;;;;;;4.07;3.10;;;18.00;99.90;;;;;;5083721;28;20194;-71
2023/08/01 05:28:12;;;;;;;2.87;2.57;;;17.90;99.90;;;;;;5070640;28;20201;-65
2023/08/01 05:30:37;;;;;;;3.63;2.50;;;18.00;99.90;;;;;;5066811;28;20315;-65
2023/08/01 05:33:03;;;;;;;2.93;2.67;;;18.10;99.90;;;;;;5080819;28;20614;-63
2023/08/01 05:35:29;;;;;;;4.00;3.27;;;18.10;99.90;;;;;;5084934;28;20677;-65
2023/08/01 05:37:54;;;;;;;4.00;3.00;;;18.00;99.90;;;;;;5063296;28;20237;-67
2023/08/01 05:40:19;;;;;;;4.40;2.80;;;18.00;99.90;;;;;;5074254;28;20191;-66
2023/08/01 05:42:45;;;;;;;3.47;3.07;;;18.00;99.90;;;;;;5067576;28;20664;-65
2023/08/01 05:45:11;;;;;;;2.97;2.73;;;18.00;99.90;;;;;;5062789;28;20233;-58
2023/08/01 05:47:39;;;;;;;4.10;3.37;;;18.00;99.90;;;;;;5062608;28;20202;-65
2023/08/01 05:50:05;;;;;;;3.83;3.53;;;18.10;99.90;;;;;;5064517;28;20343;-65
2023/08/01 05:52:31;;;;;;;3.30;3.00;;;18.10;99.90;;;;;;5063259;28;20218;-64
2023/08/01 05:54:56;;;;;;;3.97;3.13;;;18.10;99.90;;;;;;5064224;28;20224;-61
2023/08/01 05:57:22;;;;;;;3.80;3.50;;;18.20;99.90;;;;;;5064142;28;20198;-58
2023/08/01 05:59:47;;;;;;;4.20;3.80;;;18.10;99.90;;;;;;5064433;28;20203;-69
2023/08/01 06:02:13;;;;;;;4.40;3.70;;;18.10;99.90;;;;;;5066628;28;20351;-69
2023/08/01 06:04:38;;;;;;;3.83;3.47;;;18.20;99.90;;;;;;5076861;28;20218;-69
2023/08/01 06:07:04;;;;;;;4.67;3.30;;;18.30;99.90;;;;;;5073120;28;20271;-70
2023/08/01 06:09:30;;;;;;;3.30;3.00;;;18.30;99.90;;;;;;5078220;28;20234;-69
2023/08/01 06:11:55;;;;;;;5.20;3.70;;;18.30;99.90;;;;;;5060898;28;20247;-69
2023/08/01 06:14:21;;;;;;;3.20;2.90;;;18.40;99.90;;;;;;5061675;28;20420;-62
2023/08/01 06:16:46;;;;;;;3.37;2.97;;;18.30;99.90;;;;;;5062419;28;20335;-61
2023/08/01 06:19:12;;;;;;;5.90;3.33;;;18.40;99.90;;;;;;5063142;28;20285;-60
2023/08/01 06:21:37;;;;;;;4.60;4.00;;;18.40;99.90;;;;;;5063095;28;20187;-73
2023/08/01 06:24:03;;;;;;;3.93;3.63;;;18.30;99.90;;;;;;5060079;28;20864;-73
2023/08/01 06:26:29;;;;;;;3.27;2.97;;;18.30;99.90;;;;;;5064846;28;20190;-71
2023/08/01 06:28:54;;;;;;;3.27;3.00;;;18.40;99.90;;;;;;5062316;28;20202;-70
2023/08/01 06:31:21;;;;;;;4.80;3.43;;;18.40;99.90;;;;;;5065659;28;20206;-68
2023/08/01 06:33:46;;;;;;;5.23;3.27;;;18.40;99.90;;;;;;5062881;28;20743;-75
2023/08/01 06:36:12;;;;;;;2.90;2.60;;;18.30;99.90;;;;;;5062852;28;20197;-75
2023/08/01 06:38:38;;;;;;;3.40;3.07;;;18.30;99.90;;;;;;5061476;28;20202;-61
2023/08/01 06:41:04;;;;;;;2.27;2.00;;;18.30;99.90;;;;;;5064724;28;20201;-64
2023/08/01 06:43:29;;;;;;;2.73;2.53;;;18.30;99.90;;;;;;5060421;28;20198;-71
2023/08/01 06:45:55;;;;;;;3.37;3.07;;;18.40;99.90;;;;;;5063247;28;20193;-63
2023/08/01 06:48:20;;;;;;;3.40;3.10;;;18.40;99.90;;;;;;5062024;28;20201;-71
2023/08/01 06:50:46;;;;;;;4.57;3.60;;;18.40;99.90;;;;;;5063533;28;20213;-70
2023/08/01 06:53:11;;;;;;;3.17;2.87;;;18.40;99.90;;;;;;5062077;28;20210;-70
2023/08/01 06:55:37;;;;;;;3.37;3.07;;;18.30;99.90;;;;;;5066613;28;20282;-70
2023/08/01 06:58:02;;;;;;;4.20;3.03;;;18.40;99.90;;;;;;5080582;28;20250;-70
2023/08/01 07:00:28;;;;;;;3.50;2.30;;;18.50;99.90;;;;;;5063957;28;20194;-63
2023/08/01 07:02:53;;;;;;;4.17;3.20;;;18.50;99.90;;;;;;5059950;28;20198;-65
2023/08/01 07:05:18;;;;;;;3.27;2.30;;;18.50;99.90;;;;;;5064539;28;20198;-59
2023/08/01 07:07:44;;;;;;;3.90;2.70;;;18.60;99.90;;;;;;5055924;28;20194;-60
2023/08/01 07:10:10;;;;;;;3.90;2.70;;;18.60;99.90;;;;;;5066836;28;20262;-60
2023/08/01 07:12:35;;;;;;;3.43;2.87;;;18.60;99.90;;;;;;5067923;28;20613;-71
2023/08/01 07:15:01;;;;;;;4.73;2.67;;;18.60;99.90;;;;;;5061933;28;20190;-72
2023/08/01 07:17:26;;;;;;;2.43;2.23;;;18.70;99.90;;;;;;5059436;28;20248;-65
2023/08/01 07:19:53;;;;;;;3.23;2.90;;;18.80;99.90;;;;;;5062017;28;20194;-67
2023/08/01 07:22:18;;;;;;;3.13;2.83;;;18.80;99.90;;;;;;5052322;28;20634;-63
2023/08/01 07:24:44;;;;;;;5.33;3.13;;;18.80;99.90;;;;;;5054968;28;20186;-62
2023/08/01 07:27:09;;;;;;;2.93;2.73;;;18.90;99.90;;;;;;5058286;28;20225;-61
2023/08/01 07:29:35;;;;;;;3.20;2.90;;;19.00;99.90;;;;;;5061458;28;20206;-64
2023/08/01 07:32:00;;;;;;;3.63;2.60;;;19.10;99.90;;;;;;5060380;28;20222;-64
2023/08/01 07:34:26;;;;;;;4.80;2.87;;;19.10;99.90;;;;;;5061701;28;20212;-73
2023/08/01 07:36:51;;;;;;;4.27;2.30;;;19.10;99.90;;;;;;5060621;28;20198;-64
2023/08/01 07:39:17;;;;;;;5.53;2.83;;;19.10;99.90;;;;;;5061238;28;20223;-74
2023/08/01 07:41:42;;;;;;;3.73;2.10;;;19.20;99.90;;;;;;5064463;28;20216;-62
2023/08/01 07:44:08;;;;;;;3.63;2.40;;;19.40;99.90;;;;;;5058559;28;20244;-69
2023/08/01 07:46:33;;;;;;;2.90;2.60;;;19.40;99.90;;;;;;5070846;28;20194;-60
2023/08/01 07:48:59;;;;;;;3.90;2.50;;;19.50;99.90;;;;;;5057326;28;20198;-69
2023/08/01 07:51:25;;;;;;;2.60;2.30;;;19.50;99.90;;;;;;5063432;28;20218;-70
2023/08/01 07:53:52;;;;;;;2.50;2.00;;;19.50;99.90;;;;;;5062950;28;20210;-71
2023/08/01 07:56:19;;;;;;;3.27;2.70;;;19.40;99.90;;;;;;5070319;28;20207;-70
2023/08/01 07:58:44;;;;;;;2.30;2.10;;;19.60;99.90;;;;;;5065499;28;20289;-70
2023/08/01 08:01:10;;;;;;;7.13;2.37;;;19.70;99.90;;;;;;5066047;28;20190;-71
2023/08/01 08:03:35;;;;;;;3.57;2.70;;;19.70;99.90;;;;;;5057364;28;20666;-60
2023/08/01 08:06:01;;;;;;;2.23;2.03;;;19.90;99.90;;;;;;5068099;28;20256;-67
2023/08/01 08:08:27;;;;;;;3.07;2.50;;;20.00;99.90;;;;;;5058722;28;20191;-59
2023/08/01 08:10:53;;;;;;;3.17;2.27;;;20.00;99.90;;;;;;5061520;28;20226;-59
2023/08/01 08:13:18;;;;;;;2.47;2.03;;;20.00;99.90;;;;;;5063781;28;20210;-59
2023/08/01 08:15:43;;;;;;;3.07;2.17;;;20.00;99.90;;;;;;5063538;28;20327;-59
2023/08/01 08:18:09;;;;;;;2.77;2.03;;;20.10;99.90;;;;;;5064537;28;20703;-60
2023/08/01 08:20:42;;;;;;;2.30;1.60;;;20.20;99.90;;;;;;5062392;28;20194;-60
2023/08/01 08:23:08;;;;;;;1.70;1.43;;;20.20;99.90;;;;;;5051142;28;20206;-69
2023/08/01 08:25:34;;;;;;;3.83;2.00;;;20.20;99.90;;;;;;5056911;28;20198;-66
2023/08/01 08:27:59;;;;;;;2.67;1.97;;;20.10;99.90;;;;;;5056417;28;20209;-68
2023/08/01 08:30:25;;;;;;;3.90;2.57;;;20.00;99.90;;;;;;5054143;28;20660;-62
2023/08/01 08:32:50;;;;;;;4.70;1.80;;;20.10;99.90;;;;;;5057910;28;20206;-59
2023/08/01 08:35:16;;;;;;;2.13;1.93;;;20.20;99.90;;;;;;5063062;28;20807;-60
2023/08/01 08:37:41;;;;;;;2.00;1.90;;;20.20;99.90;;;;;;5062778;28;20207;-62
2023/08/01 08:40:08;;;;;;;2.30;2.00;;;20.30;99.90;;;;;;5066084;28;20190;-72
2023/08/01 08:42:35;;;;;;;1.70;1.60;;;20.50;99.90;;;;;;5075179;28;20229;-69
2023/08/01 08:45:02;;;;;;;1.83;1.50;;;20.30;99.90;;;;;;5059474;28;20244;-74
2023/08/01 08:47:30;;;;;;;1.67;1.57;;;20.50;99.90;;;;;;5066845;28;20198;-61
2023/08/01 08:49:59;;;;;;;2.53;1.77;;;20.40;99.90;;;;;;5067936;28;20293;-73
2023/08/01 08:52:25;;;;;;;2.17;1.60;;;20.40;99.90;;;;;;5064852;28;20194;-74
2023/08/01 08:54:52;;;;;;;3.70;1.77;;;20.40;99.90;;;;;;5061771;28;20193;-69
2023/08/01 08:57:19;;;;;;;2.70;1.77;;;20.40;99.90;;;;;;5065785;28;20210;-69
2023/08/01 08:59:46;;;;;;;1.80;1.70;;;20.40;99.90;;;;;;5062175;28;20636;-68
2023/08/01 09:02:13;;;;;;;1.20;1.13;;;20.40;99.90;;;;;;5069943;28;20746;-64
2023/08/01 09:04:38;;;;;;;1.93;1.73;;;20.60;99.90;;;;;;5061876;28;20174;-76
2023/08/01 09:07:09;;;;;;;2.73;1.57;;;20.70;99.90;;;;;;5067513;28;20195;-64
2023/08/01 09:09:34;;;;;;;2.07;1.40;;;20.60;99.90;;;;;;5074779;28;20216;-61
2023/08/01 09:12:00;;;;;;;2.07;1.30;;;20.80;99.90;;;;;;5060618;28;20234;-70
2023/08/01 09:14:25;;;;;;;1.77;1.53;;;21.00;99.90;;;;;;5061355;28;20175;-61
2023/08/01 09:16:51;;;;;;;1.53;1.33;;;21.10;99.90;;;;;;5061530;28;20207;-75
2023/08/01 09:19:19;;;;;;;1.40;1.23;;;21.20;99.90;;;;;;5065427;28;20298;-75
2023/08/01 09:21:45;;;;;;;2.07;0.90;;;21.30;99.90;;;;;;5062736;28;20781;-62
2023/08/01 09:24:12;;;;;;;1.00;1.00;;;21.40;99.90;;;;;;5063410;28;20185;-69
2023/08/01 09:26:37;;;;;;;0.87;0.87;;;21.20;99.90;;;;;;5062134;28;20210;-69
2023/08/01 09:29:03;;;;;;;1.70;1.13;;;21.20;99.90;;;;;;5064582;28;20253;-62
2023/08/01 09:31:31;;;;;;;1.03;1.03;;;21.10;99.90;;;;;;5064576;28;20211;-62
2023/08/01 09:33:57;;;;;;;0.80;0.80;;;21.10;99.90;;;;;;5063692;28;20280;-62
2023/08/01 09:36:23;;;;;;;0.83;0.83;;;21.10;99.90;;;;;;5063229;28;20632;-64
2023/08/01 09:38:49;;;;;;;1.23;1.17;;;20.80;99.90;;;;;;5068035;28;20724;-62
2023/08/01 09:41:19;;;;;;;2.47;1.13;;;20.70;99.90;;;;;;5063994;28;20300;-67
2023/08/01 09:43:46;;;;;;;1.17;1.00;;;20.50;99.90;;;;;;5063661;28;20723;-68
2023/08/01 09:46:15;;;;;;;1.50;1.40;;;20.30;99.90;;;;;;5066598;28;20209;-68
2023/08/01 09:48:41;;;;;;;1.27;1.07;;;20.30;99.90;;;;;;5065865;28;20657;-76
2023/08/01 09:51:11;;;;;;;1.27;1.17;;;20.20;99.90;;;;;;5069915;28;20246;-67
2023/08/01 09:53:48;;;;;;;1.00;1.00;;;20.10;99.90;;;;;;5070960;28;20206;-62
2023/08/01 09:56:17;;;;;;;1.30;1.20;;;20.10;99.90;;;;;;5048760;28;20258;-63
2023/08/01 09:58:44;;;;;;;1.43;1.30;;;20.20;99.90;;;;;;5068981;28;20244;-61
2023/08/01 10:01:10;;;;;;;1.20;1.20;;;20.10;99.90;;;;;;5061652;28;20182;-62
2023/08/01 10:03:36;;;;;;;1.00;1.00;;;20.20;99.90;;;;;;5064120;28;20251;-70
2023/08/01 10:06:02;;;;;;;1.73;1.40;;;20.20;99.90;;;;;;5064717;28;20178;-69
2023/08/01 10:08:29;;;;;;;3.47;1.30;;;20.20;99.90;;;;;;5067077;28;20198;-69
2023/08/01 10:10:56;;;;;;;1.57;1.13;;;20.10;99.90;;;;;;5063726;28;20270;-68
2023/08/01 10:13:24;;;;;;;0.90;0.90;;;20.10;99.90;;;;;;5064000;28;20225;-69
2023/08/01 10:15:50;;;;;;;1.50;1.00;;;20.10;99.90;;;;;;5065279;28;20182;-75
2023/08/01 10:18:17;;;;;;;1.17;0.80;;;20.20;99.90;;;;;;5066568;28;20710;-65
2023/08/01 10:20:44;;;;;;;0.70;0.70;;;20.20;99.90;;;;;;5058411;28;20267;-75
2023/08/01 10:23:10;;;;;;;2.23;1.03;;;20.20;99.90;;;;;;5068410;28;20238;-60
2023/08/01 10:25:37;;;;;;;1.27;1.17;;;20.10;99.90;;;;;;5058085;28;20182;-59
2023/08/01 10:28:05;;;;;;;1.33;1.10;;;20.20;99.90;;;;;;5061049;28;20374;-70
2023/08/01 10:30:31;;;;;;;3.50;1.03;;;20.00;99.90;;;;;;5063819;28;20212;-61
2023/08/01 10:32:58;;;;;;;0.87;0.73;;;19.80;99.90;;;;;;5062367;28;20230;-61
2023/08/01 10:35:37;;;;;;;1.30;1.20;;;19.30;99.90;;;;;;5063668;28;20178;-61
2023/08/01 10:38:10;;;;;;;1.30;1.07;;;19.10;99.90;;;;;;5059980;28;20197;-65
2023/08/01 10:40:37;;;;;;;1.50;1.40;;;18.70;99.90;;;;;;5063177;28;20171;-66
2023/08/01 10:43:03;;;;;;;1.70;1.60;;;18.30;99.90;;;;;;5060303;28;20714;-64
2023/08/01 10:45:29;;;;;;;2.83;1.70;;;18.20;99.90;;;;;;5063496;28;20218;-67
2023/08/01 10:48:05;;;;;;;0.90;0.90;;;18.10;99.90;;;;;;5063890;28;20263;-64
2023/08/01 10:50:31;;;;;;;4.33;1.30;;;17.80;99.90;;;;;;5063074;28;20210;-72
2023/08/01 10:53:08;;;;;;;1.10;1.00;;;17.90;99.90;;;;;;5064490;28;20303;-65
2023/08/01 10:55:46;;;;;;;1.77;1.33;;;17.80;99.90;;;;;;5062184;28;20730;-64
2023/08/01 10:58:12;;;;;;;2.60;1.30;;;17.70;99.90;;;;;;5062604;28;20234;-66
2023/08/01 11:00:38;;;;;;;0.93;0.93;;;17.60;99.90;;;;;;5054189;28;20286;-65
2023/08/01 11:03:04;;;;;;;2.67;1.40;;;17.50;99.90;;;;;;5049090;28;20210;-60
2023/08/01 11:05:30;;;;;;;4.50;1.80;;;17.40;99.90;;;;;;5063553;28;20221;-61
2023/08/01 11:07:56;;;;;;;1.03;1.03;;;17.40;99.90;;;;;;5055297;28;20202;-61
2023/08/01 11:10:24;;;;;;;2.47;1.40;;;17.40;99.90;;;;;;5062496;28;20698;-61
2023/08/01 11:12:50;;;;;;;2.07;1.20;;;17.30;99.90;;;;;;5060030;28;20194;-61
2023/08/01 11:15:15;;;;;;;2.13;2.00;;;17.40;99.90;;;;;;5061451;28;20201;-62
2023/08/01 11:17:42;;;;;;;2.00;1.90;;;17.30;99.90;;;;;;5061601;28;20599;-62
2023/08/01 11:20:10;;;;;;;2.60;2.40;;;17.30;99.90;;;;;;5061461;28;20194;-62
2023/08/01 11:22:37;;;;;;;3.00;2.30;;;17.20;99.90;;;;;;5071346;28;20202;-65
2023/08/01 11:25:03;;;;;;;3.37;2.27;;;17.30;99.90;;;;;;5053266;28;20300;-70
2023/08/01 11:27:29;;;;;;;3.57;2.70;;;17.40;99.90;;;;;;5052533;28;20280;-77
2023/08/01 11:29:55;;;;;;;4.77;2.37;;;17.60;99.90;;;;;;5057087;28;20203;-64
2023/08/01 11:32:22;;;;;;;2.87;2.67;;;17.80;99.90;;;;;;5058898;28;20272;-64
2023/08/01 11:34:48;;;;;;;3.43;2.63;;;18.00;99.90;;;;;;5064490;28;20260;-61
2023/08/01 11:37:20;;;;;;;4.07;2.47;;;18.10;99.90;;;;;;5064578;28;20198;-69
2023/08/01 11:39:47;;;;;;;5.70;2.83;;;18.30;99.90;;;;;;5056428;28;20279;-70
2023/08/01 11:42:16;;;;;;;3.17;2.77;;;18.30;99.90;;;;;;5062995;28;20248;-70
2023/08/01 11:44:42;;;;;;;2.90;2.70;;;18.20;99.90;;;;;;5057895;28;20193;-70
2023/08/01 11:47:15;;;;;;;9.40;3.70;;;18.00;99.90;;;;;;5064039;28;20206;-71
2023/08/01 11:49:49;;;;;;;4.50;4.10;;;18.00;99.90;;;;;;5072473;28;20210;-68
2023/08/01 11:52:28;;;;;;;5.87;4.07;;;18.10;99.90;;;;;;5053252;28;20743;-62
2023/08/01 11:54:54;;;;;;;7.50;3.80;;;18.10;99.90;;;;;;5061267;28;20272;-62
2023/08/01 11:57:21;;;;;;;4.33;3.77;;;18.20;99.90;;;;;;5055046;28;20199;-61
2023/08/01 11:59:54;;;;;;;5.50;4.50;;;18.20;99.90;;;;;;5061223;28;20189;-62
2023/08/01 12:02:27;;;;;;;6.13;4.10;;;18.20;99.90;;;;;;5056556;28;20233;-64
2023/08/01 12:04:54;;;;;;;5.23;4.10;;;18.10;99.90;;;;;;5057536;28;20205;-68
2023/08/01 12:07:19;;;;;;;3.90;3.40;;;18.20;99.90;;;;;;5059054;28;20213;-69
2023/08/01 12:12:22;;;;;;;5.10;3.60;;;18.40;99.90;;;;;;5079902;22;20241;-69
2023/08/01 12:14:48;;;;;;;4.60;3.70;;;18.50;99.90;;;;;;5051805;28;20195;-68
2023/08/01 12:17:13;;;;;;;4.57;3.80;;;18.70;99.90;;;;;;5042490;28;20771;-69
2023/08/01 12:19:38;;;;;;;5.53;3.40;;;18.80;99.90;;;;;;5038170;28;20229;-69
2023/08/01 12:22:04;;;;;;;4.50;3.40;;;18.90;99.90;;;;;;5032756;28;20204;-69
2023/08/01 12:24:30;;;;;;;6.47;3.57;;;19.40;99.90;;;;;;5033945;28;20298;-72
2023/08/01 12:26:55;;;;;;;4.70;3.33;;;19.10;99.90;;;;;;5036162;28;20611;-60
2023/08/01 12:29:21;;;;;;;4.83;3.10;;;18.90;99.90;;;;;;5036307;28;20999;-61
2023/08/01 12:31:46;;;;;;;4.10;3.43;;;19.10;99.90;;;;;;5029128;28;20234;-71
2023/08/01 12:34:12;;;;;;;4.93;3.43;;;19.20;99.90;;;;;;5032970;28;20213;-62
2023/08/01 12:36:37;;;;;;;4.70;3.27;;;19.20;99.90;;;;;;5035345;28;20195;-70
2023/08/01 12:39:03;;;;;;;5.70;3.40;;;19.30;99.90;;;;;;5038335;28;20535;-61
2023/08/01 12:41:29;;;;;;;3.87;3.57;;;19.50;99.90;;;;;;5035066;28;20188;-71
2023/08/01 12:43:55;;;;;;;4.90;3.40;;;19.60;99.90;;;;;;5033857;28;20188;-62
2023/08/01 12:46:20;;;;;;;4.93;3.33;;;19.60;99.90;;;;;;5033792;28;20567;-76